Time;durP1;ratioP1;P1;durP2;ratioP2;P2;SDS_P1;SDS_P2;PMS_P1;PMS_P2;Temp;Humidity;BMP_temperature;BMP_pressure;BME280_temperature;BME280_humidity;BME280_pressure;Samples;Min_cycle;Max_cycle;Signal;HPM_P1;HPM_P2
2021/07/21 00:01:23;;;;;;;8.80;5.03;;;;;;;;;;5113834;28;20067;-65
2021/07/21 00:03:49;;;;;;;6.82;4.43;;;;;;;;;;5112357;28;20122;-65
2021/07/21 00:06:15;;;;;;;8.77;5.57;;;;;;;;;;5113807;28;20055;-65
2021/07/21 00:08:41;;;;;;;10.88;6.10;;;;;;;;;;5115311;28;20134;-65
2021/07/21 00:13:54;;;;;;;8.40;4.93;;;;;;;;;;5113519;28;20071;-66
2021/07/21 00:16:28;;;;;;;9.13;5.00;;;;;;;;;;5113517;28;20051;-66
2021/07/21 00:18:59;;;;;;;9.15;5.25;;;;;;;;;;5113488;28;20572;-66
2021/07/21 00:21:26;;;;;;;9.00;5.15;;;;;;;;;;5097812;28;20070;-66
2021/07/21 00:23:53;;;;;;;9.82;5.60;;;;;;;;;;5115550;28;20044;-66
2021/07/21 00:26:19;;;;;;;10.57;5.45;;;;;;;;;;5113961;28;20054;-66
2021/07/21 00:28:46;;;;;;;12.48;6.35;;;;;;;;;;5113087;28;20043;-66
2021/07/21 00:31:16;;;;;;;11.65;5.82;;;;;;;;;;5113167;28;20040;-65
2021/07/21 00:33:43;;;;;;;14.57;6.90;;;;;;;;;;5113349;28;20081;-65
2021/07/21 00:36:10;;;;;;;9.43;5.40;;;;;;;;;;5094797;28;20048;-65
2021/07/21 00:38:36;;;;;;;11.15;6.50;;;;;;;;;;5097076;28;20047;-65
2021/07/21 00:41:03;;;;;;;11.73;6.72;;;;;;;;;;5095057;28;20156;-66
2021/07/21 00:43:30;;;;;;;13.13;5.93;;;;;;;;;;5093497;28;20483;-65
2021/07/21 00:45:57;;;;;;;7.55;5.22;;;;;;;;;;5094819;28;20061;-66
2021/07/21 00:48:25;;;;;;;9.13;5.10;;;;;;;;;;5094673;28;20059;-65
2021/07/21 00:50:54;;;;;;;28.20;6.50;;;;;;;;;;5096390;28;20140;-66
2021/07/21 00:53:20;;;;;;;32.88;7.75;;;;;;;;;;5107438;28;20055;-65
2021/07/21 00:55:48;;;;;;;26.80;6.28;;;;;;;;;;5107101;28;20094;-65
2021/07/21 00:58:14;;;;;;;14.63;5.43;;;;;;;;;;5092874;28;20096;-66
2021/07/21 01:00:40;;;;;;;8.93;5.07;;;;;;;;;;5112674;28;20031;-65
2021/07/21 01:03:07;;;;;;;11.88;5.70;;;;;;;;;;5112574;28;20560;-65
2021/07/21 01:05:41;;;;;;;10.35;5.50;;;;;;;;;;5096418;28;20047;-66
2021/07/21 01:08:12;;;;;;;11.15;5.45;;;;;;;;;;5092680;28;20098;-65
2021/07/21 01:11:12;;;;;;;11.00;6.18;;;;;;;;;;5111694;28;20108;-66
2021/07/21 01:13:52;;;;;;;8.85;5.32;;;;;;;;;;5094187;28;20052;-65
2021/07/21 01:16:26;;;;;;;9.40;5.60;;;;;;;;;;5112486;28;20487;-65
2021/07/21 01:18:56;;;;;;;12.48;6.18;;;;;;;;;;5112344;28;20530;-66
2021/07/21 01:21:34;;;;;;;8.05;5.50;;;;;;;;;;5077097;28;20553;-66
2021/07/21 01:24:01;;;;;;;11.02;6.00;;;;;;;;;;5095448;28;20087;-66
2021/07/21 01:26:29;;;;;;;10.80;5.35;;;;;;;;;;5095395;28;20406;-66
2021/07/21 01:28:56;;;;;;;12.55;5.25;;;;;;;;;;5111812;28;20093;-65
2021/07/21 01:31:28;;;;;;;11.15;5.68;;;;;;;;;;5093641;28;20079;-65
2021/07/21 01:33:56;;;;;;;9.93;4.90;;;;;;;;;;5111874;28;20040;-65
2021/07/21 01:36:24;;;;;;;21.17;6.20;;;;;;;;;;5078083;28;20605;-65
2021/07/21 01:38:52;;;;;;;7.57;4.68;;;;;;;;;;5091914;28;20044;-65
2021/07/21 01:41:20;;;;;;;14.57;5.50;;;;;;;;;;5094252;28;20043;-66
2021/07/21 01:43:49;;;;;;;12.32;5.60;;;;;;;;;;5093592;28;20047;-66
2021/07/21 01:46:19;;;;;;;9.32;5.40;;;;;;;;;;5093674;28;20067;-65
2021/07/21 01:48:46;;;;;;;8.60;5.38;;;;;;;;;;5111588;28;20477;-65
2021/07/21 01:51:13;;;;;;;10.68;5.28;;;;;;;;;;5093648;28;20072;-66
2021/07/21 01:53:41;;;;;;;9.73;5.85;;;;;;;;;;5075674;28;20043;-66
2021/07/21 01:56:14;;;;;;;9.40;5.90;;;;;;;;;;5093150;28;20051;-65
2021/07/21 01:58:41;;;;;;;13.45;7.53;;;;;;;;;;5091799;28;20043;-65
2021/07/21 02:01:31;;;;;;;15.82;5.95;;;;;;;;;;5092037;28;20070;-65
2021/07/21 02:04:02;;;;;;;9.07;5.70;;;;;;;;;;5111289;28;20047;-65
2021/07/21 02:06:35;;;;;;;13.73;5.45;;;;;;;;;;5111584;28;20100;-65
2021/07/21 02:09:05;;;;;;;12.55;6.05;;;;;;;;;;5112019;28;20116;-65
2021/07/21 02:11:32;;;;;;;10.20;5.90;;;;;;;;;;5113398;28;20477;-65
2021/07/21 02:14:02;;;;;;;14.50;6.32;;;;;;;;;;5093150;28;20056;-66
2021/07/21 02:16:51;;;;;;;12.40;5.95;;;;;;;;;;5093176;28;20051;-65
2021/07/21 02:19:30;;;;;;;16.02;6.22;;;;;;;;;;5091447;28;20632;-66
2021/07/21 02:22:08;;;;;;;11.98;6.90;;;;;;;;;;5091681;28;20059;-65
2021/07/21 02:24:44;;;;;;;10.80;5.50;;;;;;;;;;5091676;28;20438;-66
2021/07/21 02:27:29;;;;;;;11.75;6.72;;;;;;;;;;5078378;28;20503;-65
2021/07/21 02:29:55;;;;;;;12.73;7.03;;;;;;;;;;5094276;28;20122;-65
2021/07/21 02:32:29;;;;;;;11.43;6.82;;;;;;;;;;5095038;28;20487;-65
2021/07/21 02:34:57;;;;;;;14.52;7.20;;;;;;;;;;5099827;28;20044;-65
2021/07/21 02:37:26;;;;;;;13.48;6.53;;;;;;;;;;5118016;28;20043;-65
2021/07/21 02:39:54;;;;;;;11.35;6.75;;;;;;;;;;5098343;28;20063;-65
2021/07/21 02:42:21;;;;;;;13.57;7.07;;;;;;;;;;5082337;28;20109;-65
2021/07/21 02:44:49;;;;;;;16.15;6.75;;;;;;;;;;5101591;28;20423;-65
2021/07/21 02:47:18;;;;;;;12.02;5.85;;;;;;;;;;5082627;28;20048;-65
2021/07/21 02:49:50;;;;;;;14.65;7.13;;;;;;;;;;5099769;28;20093;-65
2021/07/21 02:52:25;;;;;;;13.00;6.50;;;;;;;;;;5097890;28;20047;-65
2021/07/21 02:55:08;;;;;;;12.45;6.80;;;;;;;;;;5098015;28;20050;-65
2021/07/21 02:57:41;;;;;;;10.52;7.05;;;;;;;;;;5085609;28;20051;-66
2021/07/21 03:00:13;;;;;;;11.23;6.55;;;;;;;;;;5117751;28;20487;-65
2021/07/21 03:02:41;;;;;;;12.10;7.07;;;;;;;;;;5101601;28;20126;-65
2021/07/21 03:05:10;;;;;;;14.40;7.13;;;;;;;;;;5097692;28;20507;-65
2021/07/21 03:07:53;;;;;;;13.27;7.22;;;;;;;;;;5097828;28;20059;-65
2021/07/21 03:10:22;;;;;;;14.77;7.35;;;;;;;;;;5097468;28;20043;-65
2021/07/21 03:13:06;;;;;;;15.70;7.70;;;;;;;;;;5099636;28;20082;-65
2021/07/21 03:15:38;;;;;;;11.80;6.93;;;;;;;;;;5116751;28;20066;-65
2021/07/21 03:18:09;;;;;;;12.40;6.38;;;;;;;;;;5099693;28;20126;-65
2021/07/21 03:20:38;;;;;;;12.73;6.88;;;;;;;;;;5095748;28;20048;-65
2021/07/21 03:23:09;;;;;;;18.25;7.63;;;;;;;;;;5114361;28;20063;-66
2021/07/21 03:25:38;;;;;;;14.35;7.25;;;;;;;;;;5099061;28;20460;-65
2021/07/21 03:28:05;;;;;;;16.33;8.30;;;;;;;;;;5116767;28;20064;-65
2021/07/21 03:30:49;;;;;;;14.83;8.20;;;;;;;;;;5098254;28;20047;-65
2021/07/21 03:33:18;;;;;;;10.60;6.75;;;;;;;;;;5098623;28;20058;-65
2021/07/21 03:35:50;;;;;;;10.45;7.00;;;;;;;;;;5096790;28;20136;-65
2021/07/21 03:38:24;;;;;;;13.35;7.40;;;;;;;;;;5101021;28;20055;-65
2021/07/21 03:41:05;;;;;;;10.98;7.43;;;;;;;;;;5099187;28;20051;-66
2021/07/21 03:43:40;;;;;;;13.45;7.88;;;;;;;;;;5098082;28;20110;-65
2021/07/21 03:46:14;;;;;;;12.50;8.10;;;;;;;;;;5095464;28;20069;-65
2021/07/21 03:48:41;;;;;;;12.88;7.18;;;;;;;;;;5094314;28;20048;-65
2021/07/21 03:51:15;;;;;;;15.32;8.50;;;;;;;;;;5095893;28;20075;-65
2021/07/21 03:54:01;;;;;;;16.77;6.82;;;;;;;;;;5112504;28;20051;-65
2021/07/21 03:56:29;;;;;;;11.98;7.07;;;;;;;;;;5097302;28;20055;-65
2021/07/21 03:59:04;;;;;;;9.55;6.45;;;;;;;;;;5093935;28;20054;-65
2021/07/21 04:01:35;;;;;;;13.30;7.47;;;;;;;;;;5095661;28;20482;-65
2021/07/21 04:04:03;;;;;;;14.23;7.68;;;;;;;;;;5095709;28;20035;-65
2021/07/21 04:06:33;;;;;;;14.32;7.30;;;;;;;;;;5113767;28;20054;-65
2021/07/21 04:09:12;;;;;;;11.90;7.35;;;;;;;;;;5113598;28;20499;-65
2021/07/21 04:11:40;;;;;;;13.98;7.00;;;;;;;;;;5097574;28;20047;-65
2021/07/21 04:14:10;;;;;;;12.30;7.50;;;;;;;;;;5093812;28;20040;-65
2021/07/21 04:17:09;;;;;;;16.23;7.38;;;;;;;;;;5097976;28;20067;-65
2021/07/21 04:19:41;;;;;;;11.02;7.18;;;;;;;;;;5095263;28;20054;-65
2021/07/21 04:22:08;;;;;;;16.88;7.13;;;;;;;;;;5095365;28;20074;-65
2021/07/21 04:24:43;;;;;;;26.67;7.63;;;;;;;;;;5113650;28;20547;-65
2021/07/21 04:27:10;;;;;;;26.70;7.15;;;;;;;;;;5095038;28;20075;-65
2021/07/21 04:29:37;;;;;;;11.82;6.82;;;;;;;;;;5096983;28;20116;-65
2021/07/21 04:32:05;;;;;;;14.02;6.53;;;;;;;;;;5094949;28;20071;-65
2021/07/21 04:34:32;;;;;;;12.70;7.10;;;;;;;;;;5093224;28;20051;-65
2021/07/21 04:36:59;;;;;;;10.65;6.70;;;;;;;;;;5093650;28;20403;-65
2021/07/21 04:39:43;;;;;;;;;;;;;;;;;;5093873;28;20067;-65
2021/07/21 04:42:29;;;;;;;10.50;7.13;;;;;;;;;;5086876;28;19919;-65
2021/07/21 04:44:57;;;;;;;12.70;6.97;;;;;;;;;;5096240;28;20078;-66
2021/07/21 04:47:24;;;;;;;10.43;5.72;;;;;;;;;;5095554;28;20040;-66
2021/07/21 04:49:52;;;;;;;9.20;6.00;;;;;;;;;;5094605;28;20118;-66
2021/07/21 04:52:20;;;;;;;9.10;5.60;;;;;;;;;;5112804;28;20124;-65
2021/07/21 04:54:48;;;;;;;13.35;5.45;;;;;;;;;;5094864;28;20040;-65
2021/07/21 04:57:15;;;;;;;10.95;5.60;;;;;;;;;;5094270;28;20063;-65
2021/07/21 04:59:58;;;;;;;12.15;5.20;;;;;;;;;;5093033;28;20082;-65
2021/07/21 05:02:31;;;;;;;11.05;5.00;;;;;;;;;;5096326;28;20452;-66
2021/07/21 05:04:57;;;;;;;9.55;4.85;;;;;;;;;;5112541;28;20483;-65
2021/07/21 05:07:39;;;;;;;9.05;4.30;;;;;;;;;;5112534;28;20082;-65
2021/07/21 05:10:13;;;;;;;8.63;4.45;;;;;;;;;;5094296;28;20044;-66
2021/07/21 05:12:46;;;;;;;10.48;4.30;;;;;;;;;;5094284;28;20077;-66
2021/07/21 05:15:16;;;;;;;7.38;4.43;;;;;;;;;;5077188;28;20122;-66
2021/07/21 05:17:50;;;;;;;7.68;4.13;;;;;;;;;;5092159;28;20059;-65
2021/07/21 05:20:27;;;;;;;8.05;4.47;;;;;;;;;;5095309;28;20043;-65
2021/07/21 05:23:08;;;;;;;7.45;4.50;;;;;;;;;;5094135;28;20108;-66
2021/07/21 05:25:40;;;;;;;5.32;3.78;;;;;;;;;;5093796;28;20043;-66
2021/07/21 05:28:26;;;;;;;8.40;4.75;;;;;;;;;;5112038;28;20059;-66
2021/07/21 05:30:55;;;;;;;8.13;4.63;;;;;;;;;;5094457;28;20051;-66
2021/07/21 05:33:23;;;;;;;10.52;4.57;;;;;;;;;;5076532;28;20096;-66
2021/07/21 05:35:51;;;;;;;9.50;5.40;;;;;;;;;;5096069;28;20055;-65
2021/07/21 05:38:22;;;;;;;8.00;4.22;;;;;;;;;;5093136;28;20043;-66
2021/07/21 05:40:49;;;;;;;11.93;4.82;;;;;;;;;;5093606;28;20069;-65
2021/07/21 05:43:36;;;;;;;13.00;4.35;;;;;;;;;;5092165;28;20048;-66
2021/07/21 05:46:06;;;;;;;10.63;4.35;;;;;;;;;;5077421;28;20093;-66
2021/07/21 05:48:38;;;;;;;8.63;4.32;;;;;;;;;;5093606;28;20078;-66
2021/07/21 05:51:30;;;;;;;10.38;5.03;;;;;;;;;;5093521;28;20043;-66
2021/07/21 05:54:14;;;;;;;7.20;4.20;;;;;;;;;;5111897;28;20113;-65
2021/07/21 05:56:41;;;;;;;9.23;4.78;;;;;;;;;;5094476;28;20051;-65
2021/07/21 05:59:12;;;;;;;9.05;4.10;;;;;;;;;;5111551;28;20044;-65
2021/07/21 06:01:39;;;;;;;9.73;4.97;;;;;;;;;;5091718;28;20074;-65
2021/07/21 06:04:06;;;;;;;16.42;4.60;;;;;;;;;;5093323;28;20067;-65
2021/07/21 06:06:33;;;;;;;14.90;4.80;;;;;;;;;;5111575;28;20044;-65
2021/07/21 06:09:00;;;;;;;8.77;4.15;;;;;;;;;;5112298;28;20074;-66
2021/07/21 06:11:32;;;;;;;7.80;4.30;;;;;;;;;;5091739;28;20423;-65
2021/07/21 06:14:00;;;;;;;8.38;4.18;;;;;;;;;;5107078;28;20046;-65
2021/07/21 06:16:28;;;;;;;8.05;4.40;;;;;;;;;;5091539;28;20522;-65
2021/07/21 06:18:55;;;;;;;7.32;3.90;;;;;;;;;;5093363;28;20205;-66
2021/07/21 06:21:22;;;;;;;7.63;4.38;;;;;;;;;;5095329;28;20511;-66
2021/07/21 06:24:12;;;;;;;7.68;4.05;;;;;;;;;;5032587;28;20080;-66
2021/07/21 06:26:39;;;;;;;6.75;4.10;;;;;;;;;;5036527;28;20053;-66
2021/07/21 06:29:41;;;;;;;6.03;3.80;;;;;;;;;;5036132;28;20053;-66
2021/07/21 06:32:09;;;;;;;11.15;4.20;;;;;;;;;;5031851;28;20543;-66
2021/07/21 06:34:35;;;;;;;8.10;4.32;;;;;;;;;;5044558;28;20443;-66
2021/07/21 06:37:12;;;;;;;9.98;4.10;;;;;;;;;;5021953;28;20050;-66
2021/07/21 06:39:38;;;;;;;5.20;3.33;;;;;;;;;;5031933;28;20080;-67
2021/07/21 06:42:06;;;;;;;7.75;4.10;;;;;;;;;;5017768;28;20559;-66
2021/07/21 06:44:34;;;;;;;6.30;3.33;;;;;;;;;;5018469;28;20058;-65
2021/07/21 06:47:20;;;;;;;8.30;3.83;;;;;;;;;;5032455;28;20049;-66
2021/07/21 06:49:51;;;;;;;8.95;4.05;;;;;;;;;;5042722;28;20096;-65
2021/07/21 06:52:19;;;;;;;9.15;4.00;;;;;;;;;;5023230;28;20116;-66
2021/07/21 06:54:46;;;;;;;7.22;3.92;;;;;;;;;;5049626;28;20138;-65
2021/07/21 06:57:27;;;;;;;8.38;3.80;;;;;;;;;;5034340;28;20056;-66
2021/07/21 07:00:12;;;;;;;6.95;4.00;;;;;;;;;;5053143;28;20056;-66
2021/07/21 07:02:58;;;;;;;5.82;3.58;;;;;;;;;;5109154;28;20074;-66
2021/07/21 07:05:50;;;;;;;9.35;4.20;;;;;;;;;;5108601;28;20089;-65
2021/07/21 07:08:35;;;;;;;7.43;3.63;;;;;;;;;;5110654;28;20136;-66
2021/07/21 07:11:22;;;;;;;7.85;3.55;;;;;;;;;;5109751;28;20077;-66
2021/07/21 07:13:48;;;;;;;8.45;4.30;;;;;;;;;;5109392;28;20454;-66
2021/07/21 07:16:14;;;;;;;9.50;4.55;;;;;;;;;;5110712;28;20043;-66
2021/07/21 07:18:41;;;;;;;10.10;4.30;;;;;;;;;;5110815;28;20494;-66
2021/07/21 07:21:07;;;;;;;8.57;3.95;;;;;;;;;;5096252;28;20047;-66
2021/07/21 07:23:34;;;;;;;4.75;3.28;;;;;;;;;;5096235;28;20127;-66
2021/07/21 07:26:00;;;;;;;6.25;3.33;;;;;;;;;;5093589;28;20044;-65
2021/07/21 07:28:26;;;;;;;7.88;3.85;;;;;;;;;;5114146;28;20090;-65
2021/07/21 07:30:53;;;;;;;5.55;3.42;;;;;;;;;;5113720;28;20411;-64
2021/07/21 07:33:19;;;;;;;4.65;3.05;;;;;;;;;;5114161;28;20043;-65
2021/07/21 07:35:45;;;;;;;7.03;3.65;;;;;;;;;;5115787;28;20086;-63
2021/07/21 07:38:12;;;;;;;7.45;3.50;;;;;;;;;;5113516;28;20043;-64
2021/07/21 07:40:42;;;;;;;7.85;3.60;;;;;;;;;;5113835;28;20048;-63
2021/07/21 07:43:09;;;;;;;9.48;3.53;;;;;;;;;;5113768;28;20040;-64
2021/07/21 07:45:35;;;;;;;8.88;3.97;;;;;;;;;;5095632;28;20075;-65
2021/07/21 07:48:02;;;;;;;6.32;3.72;;;;;;;;;;5114631;28;20559;-65
2021/07/21 07:50:29;;;;;;;10.38;4.32;;;;;;;;;;5114875;28;20079;-64
2021/07/21 07:52:55;;;;;;;13.65;3.65;;;;;;;;;;5093966;28;20051;-65
2021/07/21 07:55:21;;;;;;;7.97;3.70;;;;;;;;;;5113607;28;20571;-65
2021/07/21 07:57:48;;;;;;;7.45;3.45;;;;;;;;;;5113635;28;20079;-66
2021/07/21 08:00:16;;;;;;;7.55;3.13;;;;;;;;;;5113312;28;20043;-63
2021/07/21 08:02:42;;;;;;;11.25;3.42;;;;;;;;;;5115627;28;20406;-66
2021/07/21 08:05:10;;;;;;;5.85;3.40;;;;;;;;;;5113113;28;20082;-65
2021/07/21 08:07:36;;;;;;;6.55;3.45;;;;;;;;;;5113278;28;20044;-65
2021/07/21 08:10:03;;;;;;;6.20;3.10;;;;;;;;;;5095168;28;20455;-64
2021/07/21 08:12:29;;;;;;;5.95;3.33;;;;;;;;;;5093484;28;20052;-64
2021/07/21 08:14:56;;;;;;;7.55;3.13;;;;;;;;;;5114698;28;20047;-65
2021/07/21 08:17:22;;;;;;;5.28;2.75;;;;;;;;;;5094351;28;20040;-66
2021/07/21 08:19:50;;;;;;;5.78;3.10;;;;;;;;;;5112805;28;20043;-64
2021/07/21 08:22:16;;;;;;;8.15;3.22;;;;;;;;;;5112957;28;20055;-65
2021/07/21 08:24:43;;;;;;;8.48;3.20;;;;;;;;;;5113212;28;20039;-66
2021/07/21 08:27:09;;;;;;;7.03;3.40;;;;;;;;;;5113181;28;20122;-66
2021/07/21 08:29:35;;;;;;;7.05;3.38;;;;;;;;;;5114364;28;20048;-66
2021/07/21 08:32:02;;;;;;;5.45;3.30;;;;;;;;;;5109527;28;20040;-66
2021/07/21 08:34:29;;;;;;;6.80;2.90;;;;;;;;;;5112465;28;20083;-66
2021/07/21 08:36:55;;;;;;;4.90;3.20;;;;;;;;;;5111224;28;20097;-67
2021/07/21 08:39:21;;;;;;;4.35;2.38;;;;;;;;;;5101498;28;20104;-65
2021/07/21 08:41:49;;;;;;;5.85;2.63;;;;;;;;;;5114994;28;20063;-66
2021/07/21 08:44:15;;;;;;;9.05;3.25;;;;;;;;;;5094769;28;20040;-67
2021/07/21 08:46:42;;;;;;;8.27;3.03;;;;;;;;;;5107133;28;20040;-66
2021/07/21 08:49:08;;;;;;;5.13;3.05;;;;;;;;;;5112590;28;20059;-67
2021/07/21 08:51:35;;;;;;;7.68;3.20;;;;;;;;;;5111660;28;20047;-66
2021/07/21 08:54:02;;;;;;;7.18;2.97;;;;;;;;;;5106456;27;20048;-66
2021/07/21 08:56:28;;;;;;;5.68;3.30;;;;;;;;;;5103930;27;20090;-66
2021/07/21 08:58:55;;;;;;;6.53;4.05;;;;;;;;;;5108078;28;20059;-66
2021/07/21 09:01:22;;;;;;;7.15;3.10;;;;;;;;;;5108751;27;20059;-66
2021/07/21 09:03:49;;;;;;;4.80;3.10;;;;;;;;;;5111431;28;20047;-67
2021/07/21 09:06:15;;;;;;;5.93;3.53;;;;;;;;;;5112710;28;20446;-66
2021/07/21 09:08:42;;;;;;;8.30;3.15;;;;;;;;;;5114689;28;20047;-64
2021/07/21 09:11:10;;;;;;;6.68;3.33;;;;;;;;;;5110859;28;20522;-67
2021/07/21 09:13:37;;;;;;;7.07;3.03;;;;;;;;;;5112452;28;20043;-66
2021/07/21 09:16:04;;;;;;;5.88;3.45;;;;;;;;;;5112422;28;20039;-66
2021/07/21 09:18:31;;;;;;;5.63;3.33;;;;;;;;;;5094138;28;20078;-66
2021/07/21 09:20:59;;;;;;;5.90;3.40;;;;;;;;;;5113576;28;20069;-66
2021/07/21 09:23:38;;;;;;;5.80;3.40;;;;;;;;;;5113217;28;20071;-66
2021/07/21 09:26:07;;;;;;;3.60;2.75;;;;;;;;;;5112202;28;20079;-65
2021/07/21 09:28:39;;;;;;;7.03;3.17;;;;;;;;;;5112202;28;20039;-66
2021/07/21 09:31:06;;;;;;;5.00;3.40;;;;;;;;;;5111821;28;20505;-66
2021/07/21 09:33:33;;;;;;;4.47;3.30;;;;;;;;;;5111934;28;20043;-65
2021/07/21 09:35:59;;;;;;;4.60;3.15;;;;;;;;;;5113449;28;20092;-66
2021/07/21 09:38:27;;;;;;;6.25;3.17;;;;;;;;;;5112721;28;20082;-66
2021/07/21 09:40:55;;;;;;;7.25;3.25;;;;;;;;;;5086211;28;20562;-65
2021/07/21 09:43:22;;;;;;;5.40;3.22;;;;;;;;;;5103725;28;20047;-66
2021/07/21 09:45:49;;;;;;;5.75;3.58;;;;;;;;;;5098828;27;20089;-66
2021/07/21 09:48:18;;;;;;;6.72;3.05;;;;;;;;;;5101422;27;20044;-65
2021/07/21 09:50:48;;;;;;;6.13;3.47;;;;;;;;;;5112491;28;20118;-65
2021/07/21 09:53:15;;;;;;;5.50;3.70;;;;;;;;;;5111106;28;20056;-65
2021/07/21 09:55:43;;;;;;;6.80;3.47;;;;;;;;;;5111061;28;20048;-64
2021/07/21 09:58:10;;;;;;;5.97;3.30;;;;;;;;;;5111243;28;20080;-65
2021/07/21 10:00:41;;;;;;;10.00;3.80;;;;;;;;;;5111147;28;20086;-64
2021/07/21 10:03:10;;;;;;;6.18;3.28;;;;;;;;;;5111076;28;20092;-65
2021/07/21 10:05:56;;;;;;;4.93;3.30;;;;;;;;;;5111322;28;20079;-64
2021/07/21 10:08:26;;;;;;;6.68;3.08;;;;;;;;;;5113132;27;20123;-66
2021/07/21 10:10:53;;;;;;;7.28;3.50;;;;;;;;;;5105879;28;20118;-66
2021/07/21 10:13:19;;;;;;;8.60;4.03;;;;;;;;;;5111086;28;20126;-65
2021/07/21 10:15:46;;;;;;;5.53;3.42;;;;;;;;;;5110560;28;20043;-66
2021/07/21 10:18:14;;;;;;;7.60;3.10;;;;;;;;;;5110701;28;20073;-65
2021/07/21 10:20:42;;;;;;;4.65;3.28;;;;;;;;;;5112897;28;20048;-64
2021/07/21 10:23:09;;;;;;;6.65;3.17;;;;;;;;;;5110639;28;20538;-66
2021/07/21 10:25:38;;;;;;;5.72;3.30;;;;;;;;;;5110844;28;20496;-64
2021/07/21 10:28:08;;;;;;;9.35;3.90;;;;;;;;;;5109501;28;20079;-65
2021/07/21 10:30:35;;;;;;;7.57;3.90;;;;;;;;;;5110302;28;20047;-65
2021/07/21 10:33:02;;;;;;;5.18;3.45;;;;;;;;;;5112164;28;20075;-66
2021/07/21 10:35:29;;;;;;;7.13;3.35;;;;;;;;;;5110147;28;20432;-66
2021/07/21 10:37:56;;;;;;;6.18;3.28;;;;;;;;;;5111097;28;20047;-67
2021/07/21 10:40:23;;;;;;;9.75;3.53;;;;;;;;;;5111082;28;20047;-66
2021/07/21 10:42:57;;;;;;;5.80;2.88;;;;;;;;;;5108098;28;20036;-65
2021/07/21 10:45:31;;;;;;;6.43;3.42;;;;;;;;;;5102633;28;20051;-66
2021/07/21 10:48:04;;;;;;;6.03;3.65;;;;;;;;;;5101588;28;20040;-66
2021/07/21 10:50:50;;;;;;;7.18;3.28;;;;;;;;;;5085610;28;20064;-66
2021/07/21 10:53:34;;;;;;;5.85;3.53;;;;;;;;;;5102061;28;20087;-66
2021/07/21 10:59:11;;;;;;;5.22;3.58;;;;;;;;;;5106034;28;19974;-66
2021/07/21 11:01:42;;;;;;;9.02;2.80;;;;;;;;;;5106107;27;20090;-66
2021/07/21 11:04:08;;;;;;;9.07;3.33;;;;;;;;;;5106137;28;20047;-66
2021/07/21 11:06:42;;;;;;;6.95;3.42;;;;;;;;;;5107566;28;20518;-66
2021/07/21 11:09:15;;;;;;;5.80;3.95;;;;;;;;;;5109367;28;20054;-66
2021/07/21 11:11:42;;;;;;;5.63;3.55;;;;;;;;;;5106797;27;20044;-66
2021/07/21 11:14:15;;;;;;;9.50;3.95;;;;;;;;;;5104422;28;20127;-66
2021/07/21 11:16:44;;;;;;;;;;;;;;;;;;5108594;28;20396;-65
2021/07/21 11:19:28;;;;;;;6.47;2.97;;;;;;;;;;5114634;28;19920;-66
2021/07/21 11:21:55;;;;;;;;;;;;;;;;;;5115163;28;20525;-66
2021/07/21 11:24:21;;;;;;;8.13;3.15;;;;;;;;;;5110196;27;19931;-66
2021/07/21 11:26:51;;;;;;;5.72;2.90;;;;;;;;;;5109184;27;20062;-66
2021/07/21 11:29:24;;;;;;;7.30;3.13;;;;;;;;;;5111609;28;20161;-65
2021/07/21 11:31:53;;;;;;;5.28;2.42;;;;;;;;;;5113813;28;20494;-66
2021/07/21 11:34:40;;;;;;;5.57;2.85;;;;;;;;;;5113917;28;20571;-65
2021/07/21 11:37:07;;;;;;;3.50;2.05;;;;;;;;;;5095472;28;20088;-65
2021/07/21 11:39:53;;;;;;;7.03;2.35;;;;;;;;;;5113450;28;20533;-65
2021/07/21 11:42:41;;;;;;;9.25;2.17;;;;;;;;;;5113876;28;20035;-65
2021/07/21 11:45:14;;;;;;;4.18;2.15;;;;;;;;;;5112128;28;20563;-65
2021/07/21 11:47:41;;;;;;;8.18;2.50;;;;;;;;;;5114235;28;20039;-66
2021/07/21 11:50:17;;;;;;;3.33;2.40;;;;;;;;;;5113733;28;20047;-67
2021/07/21 11:52:45;;;;;;;3.13;1.77;;;;;;;;;;5113145;28;20079;-66
2021/07/21 11:55:12;;;;;;;5.40;2.40;;;;;;;;;;5112771;28;20048;-65
2021/07/21 11:57:39;;;;;;;10.48;2.55;;;;;;;;;;5113642;28;20035;-67
2021/07/21 12:00:06;;;;;;;4.28;2.20;;;;;;;;;;5114511;28;20044;-66
2021/07/21 12:02:37;;;;;;;9.00;2.40;;;;;;;;;;5114172;28;20047;-66
2021/07/21 12:05:05;;;;;;;4.60;2.35;;;;;;;;;;5093106;28;20043;-66
2021/07/21 12:07:33;;;;;;;4.93;2.78;;;;;;;;;;5113536;28;20108;-66
2021/07/21 12:09:59;;;;;;;7.85;2.80;;;;;;;;;;5117323;27;20042;-65
2021/07/21 12:12:26;;;;;;;4.20;2.92;;;;;;;;;;5117590;27;20047;-65
2021/07/21 12:14:53;;;;;;;3.75;2.65;;;;;;;;;;5110089;28;20054;-65
2021/07/21 12:17:20;;;;;;;3.67;2.50;;;;;;;;;;5112920;28;20047;-65
2021/07/21 12:19:53;;;;;;;4.05;2.42;;;;;;;;;;5113193;28;20054;-65
2021/07/21 12:22:20;;;;;;;4.75;2.97;;;;;;;;;;5091733;28;20078;-65
2021/07/21 12:24:51;;;;;;;3.60;2.70;;;;;;;;;;5113099;27;20555;-65
2021/07/21 12:27:29;;;;;;;4.47;3.13;;;;;;;;;;5116058;27;20430;-63
2021/07/21 12:30:22;;;;;;;4.75;2.53;;;;;;;;;;5112840;27;20062;-66
2021/07/21 12:32:50;;;;;;;7.30;2.63;;;;;;;;;;5107891;27;20066;-63
2021/07/21 12:35:19;;;;;;;3.67;2.72;;;;;;;;;;5111145;28;20074;-63
2021/07/21 12:37:47;;;;;;;5.93;3.00;;;;;;;;;;5112215;28;20126;-63
2021/07/21 12:40:19;;;;;;;4.47;2.40;;;;;;;;;;5112465;28;20042;-63
2021/07/21 12:42:45;;;;;;;3.92;2.80;;;;;;;;;;5112515;28;20105;-64
2021/07/21 12:45:13;;;;;;;9.93;2.97;;;;;;;;;;5113177;28;20131;-64
2021/07/21 12:47:41;;;;;;;5.68;2.85;;;;;;;;;;5115203;27;20050;-64
2021/07/21 12:50:09;;;;;;;4.03;2.50;;;;;;;;;;5121230;27;20506;-63
2021/07/21 12:52:39;;;;;;;5.55;2.55;;;;;;;;;;5101764;27;20075;-65
2021/07/21 12:55:06;;;;;;;5.60;2.75;;;;;;;;;;5120922;27;20126;-64
2021/07/21 12:57:36;;;;;;;4.82;2.60;;;;;;;;;;5118540;27;20071;-62
2021/07/21 13:00:12;;;;;;;4.35;2.53;;;;;;;;;;5113524;28;20134;-64
2021/07/21 13:02:38;;;;;;;5.50;3.00;;;;;;;;;;5112273;28;20083;-62
2021/07/21 13:05:23;;;;;;;5.20;2.83;;;;;;;;;;5111840;27;20052;-63
2021/07/21 13:07:56;;;;;;;4.78;2.45;;;;;;;;;;5092115;28;20524;-63
2021/07/21 13:10:23;;;;;;;7.80;3.23;;;;;;;;;;5094025;28;20048;-63
2021/07/21 13:12:50;;;;;;;4.85;3.38;;;;;;;;;;5111826;28;20054;-62
2021/07/21 13:15:36;;;;;;;6.13;3.00;;;;;;;;;;5112009;28;20087;-63
2021/07/21 13:18:15;;;;;;;6.20;2.83;;;;;;;;;;5111897;28;20071;-63
2021/07/21 13:20:46;;;;;;;4.97;3.10;;;;;;;;;;5112515;28;20086;-63
2021/07/21 13:23:14;;;;;;;5.72;3.22;;;;;;;;;;5106564;27;20126;-63
2021/07/21 13:25:41;;;;;;;5.22;2.88;;;;;;;;;;5108252;27;20035;-64
2021/07/21 13:28:20;;;;;;;4.65;3.05;;;;;;;;;;5106005;28;20514;-63
2021/07/21 13:30:47;;;;;;;5.18;2.85;;;;;;;;;;5106693;28;20412;-62
2021/07/21 13:33:13;;;;;;;4.82;2.83;;;;;;;;;;5110006;27;20082;-62
2021/07/21 13:35:40;;;;;;;7.13;3.08;;;;;;;;;;5108164;28;20047;-63
2021/07/21 13:38:06;;;;;;;8.25;3.10;;;;;;;;;;5106256;27;20035;-61
2021/07/21 13:40:32;;;;;;;5.15;2.50;;;;;;;;;;5101592;28;20076;-62
2021/07/21 13:43:06;;;;;;;5.25;3.15;;;;;;;;;;5093564;28;20496;-62
2021/07/21 13:45:32;;;;;;;9.27;3.10;;;;;;;;;;5094204;28;20040;-62
2021/07/21 13:47:59;;;;;;;4.32;2.75;;;;;;;;;;5092734;28;20383;-64
2021/07/21 13:50:25;;;;;;;11.05;3.92;;;;;;;;;;5086960;28;20054;-62
2021/07/21 13:52:59;;;;;;;4.68;3.20;;;;;;;;;;5086054;28;20055;-61
2021/07/21 13:55:25;;;;;;;5.72;3.47;;;;;;;;;;5105335;28;20071;-63
2021/07/21 13:57:52;;;;;;;6.50;2.92;;;;;;;;;;5104909;28;20048;-63
2021/07/21 14:00:18;;;;;;;5.30;2.92;;;;;;;;;;5109208;28;20134;-62
2021/07/21 14:02:44;;;;;;;5.43;2.83;;;;;;;;;;5107778;28;20055;-62
2021/07/21 14:05:11;;;;;;;5.43;2.90;;;;;;;;;;5085361;28;20044;-63
2021/07/21 14:07:37;;;;;;;7.15;3.17;;;;;;;;;;5102618;28;20048;-63
2021/07/21 14:10:04;;;;;;;5.65;3.25;;;;;;;;;;5099704;28;20071;-63
2021/07/21 14:12:30;;;;;;;4.20;3.00;;;;;;;;;;5091372;28;20126;-63
2021/07/21 14:14:56;;;;;;;7.45;3.90;;;;;;;;;;5107804;28;20126;-62
2021/07/21 14:17:23;;;;;;;4.45;2.90;;;;;;;;;;5103331;28;20076;-63
2021/07/21 14:19:49;;;;;;;9.65;3.72;;;;;;;;;;5103011;28;20044;-63
2021/07/21 14:22:15;;;;;;;6.55;3.13;;;;;;;;;;5105724;28;20395;-62
2021/07/21 14:24:42;;;;;;;4.15;2.88;;;;;;;;;;5105651;28;20043;-63
2021/07/21 14:27:08;;;;;;;4.65;2.88;;;;;;;;;;5077833;28;21179;-62
2021/07/21 14:29:34;;;;;;;5.47;3.38;;;;;;;;;;5096863;28;20051;-62
2021/07/21 14:32:01;;;;;;;5.00;2.83;;;;;;;;;;5093751;28;20087;-63
2021/07/21 14:34:27;;;;;;;9.27;3.42;;;;;;;;;;5096638;28;20126;-64
2021/07/21 14:36:53;;;;;;;4.45;2.95;;;;;;;;;;5099806;28;20040;-62
2021/07/21 14:39:21;;;;;;;4.47;2.83;;;;;;;;;;5097907;28;20071;-63
2021/07/21 14:41:48;;;;;;;4.85;3.13;;;;;;;;;;5105221;28;20047;-63
2021/07/21 14:44:18;;;;;;;7.85;3.08;;;;;;;;;;5101464;28;20040;-63
2021/07/21 14:46:45;;;;;;;9.18;3.22;;;;;;;;;;5100155;28;20050;-62
2021/07/21 14:49:12;;;;;;;6.45;2.90;;;;;;;;;;5102589;28;20044;-62
2021/07/21 14:51:39;;;;;;;6.30;3.10;;;;;;;;;;5104825;28;20043;-63
2021/07/21 14:54:06;;;;;;;6.07;2.90;;;;;;;;;;5104849;28;20055;-62
2021/07/21 14:56:32;;;;;;;6.28;2.90;;;;;;;;;;5103417;28;20067;-62
2021/07/21 14:59:03;;;;;;;6.20;3.33;;;;;;;;;;5097965;28;20044;-64
2021/07/21 15:01:30;;;;;;;6.57;3.15;;;;;;;;;;5103010;28;20051;-63
2021/07/21 15:03:56;;;;;;;4.85;3.00;;;;;;;;;;5091329;28;20712;-63
2021/07/21 15:06:23;;;;;;;4.72;3.15;;;;;;;;;;5089069;28;20096;-64